SHT9T EGPH-EGLL
Flight info
| Callsign | SHT9T |
|---|---|
| Flight time | 1h 1m |
| Altitude | 33000 |
| Route | GOSAM P600 FENIK L612 NAVSO DCT AKOMU DCT VAMEB DCT NUGRA |
| Aircraft | A319/M-SDE3FGHIRWY/LB1 |
Departure
| Time | 2026-05-07 21:30 |
|---|---|
| Airport | Edinburgh Airport (EGPH) |
Arrival
| Time | 2026-05-07 22:32 |
|---|---|
| Airport | London Heathrow Airport (EGLL) |
| Time | Latitude | Longitude | Altitude | Speed | Heading |
|---|---|---|---|---|---|
| 2026-05-07 21:08 | 55.94801 | -3.36636 | 112 ft | 0 kts | 89° |
| 2026-05-07 21:22 | 55.94800 | -3.36655 | 116 ft | 4 kts | 86° |
| 2026-05-07 21:23 | 55.94797 | -3.36703 | 113 ft | 4 kts | 75° |
| 2026-05-07 21:23 | 55.94787 | -3.36746 | 114 ft | 4 kts | 49° |
| 2026-05-07 21:23 | 55.94771 | -3.36766 | 113 ft | 3 kts | 338° |
| 2026-05-07 21:23 | 55.94767 | -3.36764 | 114 ft | 0 kts | 329° |
| 2026-05-07 21:26 | 55.94767 | -3.36763 | 114 ft | 0 kts | 329° |
| 2026-05-07 21:26 | 55.94772 | -3.36767 | 113 ft | 2 kts | 333° |
| 2026-05-07 21:26 | 55.94797 | -3.36777 | 112 ft | 5 kts | 352° |
| 2026-05-07 21:27 | 55.94842 | -3.36783 | 116 ft | 8 kts | 358° |
| 2026-05-07 21:27 | 55.94900 | -3.36813 | 115 ft | 10 kts | 330° |
| 2026-05-07 21:27 | 55.94964 | -3.36786 | 116 ft | 11 kts | 54° |
| 2026-05-07 21:27 | 55.95009 | -3.36655 | 115 ft | 13 kts | 58° |
| 2026-05-07 21:28 | 55.95061 | -3.36504 | 116 ft | 15 kts | 58° |
| 2026-05-07 21:28 | 55.95118 | -3.36335 | 116 ft | 17 kts | 59° |
| 2026-05-07 21:28 | 55.95181 | -3.36146 | 115 ft | 19 kts | 59° |
| 2026-05-07 21:28 | 55.95251 | -3.35940 | 114 ft | 20 kts | 58° |
| 2026-05-07 21:29 | 55.95329 | -3.35713 | 116 ft | 22 kts | 59° |
| 2026-05-07 21:29 | 55.95409 | -3.35476 | 113 ft | 20 kts | 58° |
| 2026-05-07 21:29 | 55.95509 | -3.35451 | 113 ft | 18 kts | 329° |
| 2026-05-07 21:29 | 55.95560 | -3.35589 | 113 ft | 15 kts | 249° |
| 2026-05-07 21:30 | 55.95460 | -3.35888 | 111 ft | 54 kts | 238° |
| 2026-05-07 21:30 | 55.95164 | -3.36755 | 113 ft | 110 kts | 239° |
| 2026-05-07 21:30 | 55.94683 | -3.38182 | 256 ft | 146 kts | 239° |
| 2026-05-07 21:30 | 55.94235 | -3.39672 | 1070 ft | 130 kts | 239° |
| 2026-05-07 21:31 | 55.93757 | -3.41084 | 1568 ft | 140 kts | 233° |
| 2026-05-07 21:31 | 55.93191 | -3.42662 | 1888 ft | 162 kts | 233° |
| 2026-05-07 21:31 | 55.92542 | -3.44479 | 2225 ft | 185 kts | 234° |
| 2026-05-07 21:31 | 55.91820 | -3.46523 | 2625 ft | 207 kts | 236° |
| 2026-05-07 21:32 | 55.91028 | -3.48781 | 3264 ft | 224 kts | 237° |
| 2026-05-07 21:32 | 55.90391 | -3.51415 | 3970 ft | 241 kts | 256° |
| 2026-05-07 21:32 | 55.90092 | -3.54407 | 4955 ft | 247 kts | 257° |
| 2026-05-07 21:32 | 55.89789 | -3.57463 | 5716 ft | 254 kts | 257° |
| 2026-05-07 21:33 | 55.89479 | -3.60581 | 6586 ft | 256 kts | 257° |
| 2026-05-07 21:33 | 55.89166 | -3.63727 | 7560 ft | 259 kts | 257° |
| 2026-05-07 21:33 | 55.88850 | -3.66897 | 8513 ft | 261 kts | 257° |
| 2026-05-07 21:33 | 55.88527 | -3.70096 | 9472 ft | 264 kts | 257° |
| 2026-05-07 21:34 | 55.88197 | -3.73353 | 10236 ft | 274 kts | 257° |
| 2026-05-07 21:34 | 55.87840 | -3.76833 | 10519 ft | 298 kts | 257° |
| 2026-05-07 21:34 | 55.87455 | -3.80590 | 10847 ft | 317 kts | 257° |
| 2026-05-07 21:34 | 55.87063 | -3.84508 | 11495 ft | 324 kts | 257° |
| 2026-05-07 21:35 | 55.86674 | -3.88438 | 12217 ft | 329 kts | 257° |
| 2026-05-07 21:35 | 55.86276 | -3.92473 | 12971 ft | 333 kts | 257° |
| 2026-05-07 21:35 | 55.85874 | -3.96550 | 13739 ft | 336 kts | 257° |
| 2026-05-07 21:35 | 55.85463 | -4.00694 | 14442 ft | 339 kts | 257° |
| 2026-05-07 21:36 | 55.85053 | -4.04787 | 15121 ft | 341 kts | 257° |
| 2026-05-07 21:36 | 55.84607 | -4.08956 | 15802 ft | 343 kts | 253° |
| 2026-05-07 21:36 | 55.83690 | -4.12826 | 16454 ft | 343 kts | 236° |
| 2026-05-07 21:36 | 55.82128 | -4.16023 | 17129 ft | 345 kts | 219° |
| 2026-05-07 21:37 | 55.80164 | -4.18494 | 17815 ft | 347 kts | 215° |
| 2026-05-07 21:37 | 55.78160 | -4.20923 | 18479 ft | 350 kts | 215° |
| 2026-05-07 21:37 | 55.76139 | -4.23361 | 19078 ft | 353 kts | 212° |
| 2026-05-07 21:37 | 55.73897 | -4.25191 | 19644 ft | 358 kts | 199° |
| 2026-05-07 21:38 | 55.71428 | -4.25999 | 20233 ft | 366 kts | 186° |
| 2026-05-07 21:38 | 55.68866 | -4.25681 | 20771 ft | 375 kts | 172° |
| 2026-05-07 21:38 | 55.66365 | -4.24171 | 21327 ft | 385 kts | 158° |
| 2026-05-07 21:38 | 55.64045 | -4.22027 | 22627 ft | 366 kts | 156° |
| 2026-05-07 21:39 | 55.61866 | -4.19876 | 23887 ft | 351 kts | 155° |
| 2026-05-07 21:39 | 55.59822 | -4.17813 | 24594 ft | 348 kts | 155° |
| 2026-05-07 21:39 | 55.57657 | -4.15632 | 25171 ft | 348 kts | 155° |
| 2026-05-07 21:39 | 55.55542 | -4.13528 | 25689 ft | 350 kts | 156° |
| 2026-05-07 21:40 | 55.53440 | -4.11461 | 26197 ft | 352 kts | 156° |
| 2026-05-07 21:40 | 55.51291 | -4.09370 | 26700 ft | 354 kts | 156° |
| 2026-05-07 21:40 | 55.49128 | -4.07271 | 27198 ft | 357 kts | 156° |
| 2026-05-07 21:40 | 55.46912 | -4.05129 | 27348 ft | 369 kts | 156° |
| 2026-05-07 21:41 | 55.44620 | -4.02919 | 27459 ft | 381 kts | 155° |
| 2026-05-07 21:41 | 55.42260 | -4.00637 | 27600 ft | 392 kts | 155° |
| 2026-05-07 21:41 | 55.39836 | -3.98290 | 27754 ft | 403 kts | 155° |
| 2026-05-07 21:41 | 55.37354 | -3.95887 | 27883 ft | 412 kts | 155° |
| 2026-05-07 21:42 | 55.34810 | -3.93429 | 28050 ft | 421 kts | 155° |
| 2026-05-07 21:42 | 55.32231 | -3.90934 | 28333 ft | 425 kts | 155° |
| 2026-05-07 21:42 | 55.29634 | -3.88423 | 28688 ft | 428 kts | 155° |
| 2026-05-07 21:42 | 55.27020 | -3.85902 | 29021 ft | 430 kts | 155° |
| 2026-05-07 21:43 | 55.24384 | -3.83371 | 29371 ft | 433 kts | 155° |
| 2026-05-07 21:43 | 55.21733 | -3.80842 | 29720 ft | 435 kts | 155° |
| 2026-05-07 21:43 | 55.19044 | -3.78400 | 30036 ft | 437 kts | 156° |
| 2026-05-07 21:43 | 55.16311 | -3.76037 | 30302 ft | 439 kts | 157° |
| 2026-05-07 21:44 | 55.13549 | -3.73714 | 30612 ft | 440 kts | 158° |
| 2026-05-07 21:44 | 55.10825 | -3.71435 | 31030 ft | 439 kts | 158° |
| 2026-05-07 21:44 | 55.08076 | -3.69126 | 31444 ft | 438 kts | 157° |
| 2026-05-07 21:44 | 55.05334 | -3.66808 | 31860 ft | 437 kts | 157° |
| 2026-05-07 21:45 | 55.02601 | -3.64483 | 32273 ft | 436 kts | 157° |
| 2026-05-07 21:45 | 54.99881 | -3.62159 | 32694 ft | 435 kts | 157° |
| 2026-05-07 21:45 | 54.97162 | -3.59833 | 32951 ft | 435 kts | 157° |
| 2026-05-07 21:45 | 54.94468 | -3.57533 | 32982 ft | 431 kts | 157° |
| 2026-05-07 21:46 | 54.89112 | -3.52968 | 32995 ft | 431 kts | 157° |
| 2026-05-07 21:46 | 54.83717 | -3.48406 | 32995 ft | 431 kts | 158° |
| 2026-05-07 21:47 | 54.78345 | -3.43886 | 33006 ft | 431 kts | 158° |
| 2026-05-07 21:47 | 54.72943 | -3.39350 | 33006 ft | 431 kts | 158° |
| 2026-05-07 21:48 | 54.67551 | -3.34826 | 32993 ft | 431 kts | 157° |
| 2026-05-07 21:48 | 54.62154 | -3.30296 | 32995 ft | 431 kts | 157° |
| 2026-05-07 21:49 | 54.56751 | -3.25789 | 32998 ft | 431 kts | 158° |
| 2026-05-07 21:49 | 54.51344 | -3.21304 | 32979 ft | 431 kts | 157° |
| 2026-05-07 21:50 | 54.45928 | -3.16824 | 32987 ft | 432 kts | 157° |
| 2026-05-07 21:50 | 54.40538 | -3.12373 | 32988 ft | 433 kts | 157° |
| 2026-05-07 21:51 | 54.35106 | -3.07891 | 32991 ft | 434 kts | 157° |
| 2026-05-07 21:51 | 54.29661 | -3.03414 | 32997 ft | 434 kts | 157° |
| 2026-05-07 21:52 | 54.24210 | -2.98950 | 32995 ft | 434 kts | 158° |
| 2026-05-07 21:52 | 54.18755 | -2.94503 | 32984 ft | 435 kts | 157° |
| 2026-05-07 21:53 | 54.13263 | -2.90177 | 32989 ft | 435 kts | 159° |
| 2026-05-07 21:53 | 54.07685 | -2.86173 | 32990 ft | 435 kts | 160° |
| 2026-05-07 21:54 | 54.02091 | -2.82224 | 33001 ft | 435 kts | 160° |
| 2026-05-07 21:54 | 53.96400 | -2.78853 | 33011 ft | 433 kts | 165° |
| 2026-05-07 21:55 | 53.90657 | -2.75794 | 33008 ft | 433 kts | 165° |
| 2026-05-07 21:55 | 53.84903 | -2.72743 | 33020 ft | 433 kts | 165° |
| 2026-05-07 21:56 | 53.79184 | -2.69716 | 33025 ft | 433 kts | 165° |
| 2026-05-07 21:56 | 53.73427 | -2.66693 | 33025 ft | 433 kts | 165° |
| 2026-05-07 21:57 | 53.67679 | -2.63687 | 33020 ft | 432 kts | 165° |
| 2026-05-07 21:57 | 53.61931 | -2.60684 | 33025 ft | 432 kts | 166° |
| 2026-05-07 21:58 | 53.56182 | -2.57703 | 33011 ft | 433 kts | 166° |
| 2026-05-07 21:58 | 53.50419 | -2.54723 | 33012 ft | 434 kts | 166° |
| 2026-05-07 21:59 | 53.44634 | -2.51722 | 33016 ft | 435 kts | 166° |
| 2026-05-07 21:59 | 53.38845 | -2.48725 | 33032 ft | 436 kts | 166° |
| 2026-05-07 22:00 | 53.33050 | -2.45739 | 33038 ft | 436 kts | 166° |
| 2026-05-07 22:00 | 53.27240 | -2.42756 | 33040 ft | 436 kts | 166° |
| 2026-05-07 22:01 | 53.21470 | -2.39807 | 33035 ft | 436 kts | 166° |
| 2026-05-07 22:01 | 53.15664 | -2.36841 | 33042 ft | 436 kts | 166° |
| 2026-05-07 22:02 | 53.09867 | -2.33889 | 33045 ft | 435 kts | 166° |
| 2026-05-07 22:02 | 53.04088 | -2.30858 | 33042 ft | 437 kts | 161° |
| 2026-05-07 22:03 | 52.98745 | -2.25949 | 33040 ft | 441 kts | 150° |
| 2026-05-07 22:03 | 52.93578 | -2.20511 | 33048 ft | 439 kts | 150° |
| 2026-05-07 22:04 | 52.88405 | -2.15105 | 33060 ft | 439 kts | 150° |
| 2026-05-07 22:04 | 52.83240 | -2.09724 | 33060 ft | 438 kts | 150° |
| 2026-05-07 22:05 | 52.78121 | -2.04395 | 33057 ft | 438 kts | 150° |
| 2026-05-07 22:05 | 52.72931 | -1.99017 | 32889 ft | 439 kts | 150° |
| 2026-05-07 22:06 | 52.70338 | -1.96332 | 32614 ft | 440 kts | 150° |
| 2026-05-07 22:06 | 52.67779 | -1.93684 | 32069 ft | 441 kts | 150° |
| 2026-05-07 22:06 | 52.65154 | -1.90979 | 31048 ft | 448 kts | 150° |
| 2026-05-07 22:06 | 52.62499 | -1.88250 | 29996 ft | 454 kts | 150° |
| 2026-05-07 22:07 | 52.59804 | -1.85481 | 28953 ft | 457 kts | 150° |
| 2026-05-07 22:07 | 52.57129 | -1.82728 | 28474 ft | 447 kts | 150° |
| 2026-05-07 22:07 | 52.54512 | -1.80030 | 27834 ft | 441 kts | 150° |
| 2026-05-07 22:07 | 52.51927 | -1.77370 | 27206 ft | 436 kts | 150° |
| 2026-05-07 22:08 | 52.49372 | -1.74747 | 26580 ft | 431 kts | 150° |
| 2026-05-07 22:08 | 52.46841 | -1.72157 | 25970 ft | 426 kts | 150° |
| 2026-05-07 22:08 | 52.44340 | -1.69607 | 25368 ft | 421 kts | 150° |
| 2026-05-07 22:08 | 52.41864 | -1.67084 | 24769 ft | 417 kts | 150° |
| 2026-05-07 22:09 | 52.39411 | -1.64592 | 24175 ft | 413 kts | 150° |
| 2026-05-07 22:09 | 52.37795 | -1.62956 | 23784 ft | 411 kts | 150° |
| 2026-05-07 22:09 | 52.35373 | -1.60505 | 23141 ft | 407 kts | 150° |
| 2026-05-07 22:09 | 52.33007 | -1.58109 | 22937 ft | 393 kts | 150° |
| 2026-05-07 22:10 | 52.30730 | -1.55799 | 22762 ft | 376 kts | 150° |
| 2026-05-07 22:10 | 52.28541 | -1.53578 | 22165 ft | 366 kts | 150° |
| 2026-05-07 22:10 | 52.26395 | -1.51406 | 21431 ft | 360 kts | 150° |
| 2026-05-07 22:10 | 52.23591 | -1.48582 | 20518 ft | 355 kts | 150° |
| 2026-05-07 22:11 | 52.22177 | -1.47138 | 20208 ft | 356 kts | 148° |
| 2026-05-07 22:11 | 52.20228 | -1.44639 | 19814 ft | 356 kts | 141° |
| 2026-05-07 22:11 | 52.18357 | -1.42007 | 19464 ft | 354 kts | 141° |
| 2026-05-07 22:11 | 52.16520 | -1.39434 | 19154 ft | 349 kts | 142° |
| 2026-05-07 22:12 | 52.14692 | -1.36880 | 18996 ft | 334 kts | 142° |
| 2026-05-07 22:12 | 52.12983 | -1.34496 | 18557 ft | 324 kts | 142° |
| 2026-05-07 22:12 | 52.11286 | -1.32136 | 18081 ft | 321 kts | 142° |
| 2026-05-07 22:12 | 52.09584 | -1.29776 | 17741 ft | 320 kts | 142° |
| 2026-05-07 22:13 | 52.07887 | -1.27430 | 17412 ft | 319 kts | 142° |
| 2026-05-07 22:13 | 52.06201 | -1.25097 | 17086 ft | 318 kts | 142° |
| 2026-05-07 22:13 | 52.04526 | -1.22770 | 16760 ft | 316 kts | 142° |
| 2026-05-07 22:13 | 52.02855 | -1.20450 | 16428 ft | 315 kts | 142° |
| 2026-05-07 22:14 | 52.01190 | -1.18146 | 16102 ft | 313 kts | 142° |
| 2026-05-07 22:14 | 51.99537 | -1.15866 | 15790 ft | 311 kts | 142° |
| 2026-05-07 22:14 | 51.97895 | -1.13598 | 15470 ft | 309 kts | 142° |
| 2026-05-07 22:14 | 51.96256 | -1.11339 | 15159 ft | 308 kts | 142° |
| 2026-05-07 22:15 | 51.94625 | -1.09093 | 14788 ft | 308 kts | 142° |
| 2026-05-07 22:15 | 51.93018 | -1.06877 | 14643 ft | 298 kts | 142° |
| 2026-05-07 22:15 | 51.91464 | -1.04731 | 14513 ft | 289 kts | 142° |
| 2026-05-07 22:15 | 51.89966 | -1.02668 | 14407 ft | 280 kts | 142° |
| 2026-05-07 22:16 | 51.88494 | -1.00645 | 14277 ft | 272 kts | 142° |
| 2026-05-07 22:16 | 51.87063 | -0.98681 | 14071 ft | 267 kts | 142° |
| 2026-05-07 22:16 | 51.85688 | -0.96669 | 13690 ft | 267 kts | 134° |
| 2026-05-07 22:16 | 51.84653 | -0.94181 | 13315 ft | 268 kts | 119° |
| 2026-05-07 22:17 | 51.83839 | -0.91474 | 12921 ft | 267 kts | 118° |
| 2026-05-07 22:17 | 51.83020 | -0.88781 | 12542 ft | 266 kts | 118° |
| 2026-05-07 22:17 | 51.82205 | -0.86116 | 12170 ft | 265 kts | 118° |
| 2026-05-07 22:17 | 51.81384 | -0.83446 | 11802 ft | 263 kts | 118° |
| 2026-05-07 22:18 | 51.80572 | -0.80801 | 11434 ft | 262 kts | 118° |
| 2026-05-07 22:18 | 51.78966 | -0.75564 | 10881 ft | 254 kts | 118° |
| 2026-05-07 22:18 | 51.78182 | -0.73014 | 10574 ft | 252 kts | 118° |
| 2026-05-07 22:19 | 51.77416 | -0.70529 | 10266 ft | 251 kts | 118° |
| 2026-05-07 22:19 | 51.76631 | -0.67997 | 9931 ft | 251 kts | 118° |
| 2026-05-07 22:19 | 51.75856 | -0.65489 | 9620 ft | 248 kts | 117° |
| 2026-05-07 22:19 | 51.75104 | -0.63053 | 9383 ft | 238 kts | 117° |
| 2026-05-07 22:20 | 51.74369 | -0.60678 | 8936 ft | 235 kts | 117° |
| 2026-05-07 22:20 | 51.73637 | -0.58341 | 8480 ft | 232 kts | 121° |
| 2026-05-07 22:20 | 51.72612 | -0.56388 | 8019 ft | 227 kts | 143° |
| 2026-05-07 22:20 | 51.71250 | -0.55183 | 7557 ft | 222 kts | 163° |
| 2026-05-07 22:21 | 51.69741 | -0.54814 | 7134 ft | 219 kts | 180° |
| 2026-05-07 22:21 | 51.68225 | -0.54749 | 7079 ft | 218 kts | 179° |
| 2026-05-07 22:21 | 51.66702 | -0.54662 | 7083 ft | 219 kts | 179° |
| 2026-05-07 22:21 | 51.65177 | -0.54573 | 7084 ft | 220 kts | 178° |
| 2026-05-07 22:22 | 51.63650 | -0.54563 | 7074 ft | 219 kts | 188° |
| 2026-05-07 22:22 | 51.62210 | -0.55323 | 7082 ft | 218 kts | 211° |
| 2026-05-07 22:22 | 51.61061 | -0.56895 | 7085 ft | 218 kts | 232° |
| 2026-05-07 22:22 | 51.60358 | -0.59037 | 7084 ft | 218 kts | 253° |
| 2026-05-07 22:23 | 51.60143 | -0.61447 | 7090 ft | 219 kts | 265° |
| 2026-05-07 22:23 | 51.60021 | -0.63884 | 7086 ft | 218 kts | 265° |
| 2026-05-07 22:23 | 51.59899 | -0.66209 | 7028 ft | 208 kts | 264° |
| 2026-05-07 22:23 | 51.59758 | -0.68553 | 6746 ft | 206 kts | 264° |
| 2026-05-07 22:24 | 51.59616 | -0.70801 | 6516 ft | 202 kts | 264° |
| 2026-05-07 22:24 | 51.59474 | -0.73010 | 6229 ft | 197 kts | 263° |
| 2026-05-07 22:24 | 51.59334 | -0.75202 | 5996 ft | 197 kts | 263° |
| 2026-05-07 22:24 | 51.58941 | -0.77286 | 5722 ft | 195 kts | 239° |
| 2026-05-07 22:25 | 51.58041 | -0.78822 | 5437 ft | 185 kts | 212° |
| 2026-05-07 22:25 | 51.56876 | -0.79569 | 5192 ft | 178 kts | 188° |
| 2026-05-07 22:25 | 51.55679 | -0.79587 | 4947 ft | 169 kts | 176° |
| 2026-05-07 22:25 | 51.54513 | -0.79519 | 4699 ft | 167 kts | 176° |
| 2026-05-07 22:26 | 51.53356 | -0.79459 | 4457 ft | 166 kts | 176° |
| 2026-05-07 22:26 | 51.52206 | -0.79401 | 4218 ft | 165 kts | 176° |
| 2026-05-07 22:26 | 51.51059 | -0.79342 | 3984 ft | 164 kts | 176° |
| 2026-05-07 22:26 | 51.49920 | -0.79281 | 3770 ft | 164 kts | 176° |
| 2026-05-07 22:27 | 51.48791 | -0.79112 | 3556 ft | 163 kts | 162° |
| 2026-05-07 22:27 | 51.47906 | -0.78053 | 3347 ft | 161 kts | 125° |
| 2026-05-07 22:27 | 51.47611 | -0.76357 | 3138 ft | 162 kts | 89° |
| 2026-05-07 22:27 | 51.47791 | -0.74574 | 2923 ft | 161 kts | 86° |
| 2026-05-07 22:28 | 51.47777 | -0.72788 | 2808 ft | 160 kts | 97° |
| 2026-05-07 22:28 | 51.47699 | -0.71028 | 2677 ft | 151 kts | 94° |
| 2026-05-07 22:28 | 51.47675 | -0.69440 | 2607 ft | 137 kts | 92° |
| 2026-05-07 22:28 | 51.47668 | -0.67962 | 2498 ft | 132 kts | 92° |
| 2026-05-07 22:29 | 51.47669 | -0.66503 | 2347 ft | 130 kts | 92° |
| 2026-05-07 22:29 | 51.47673 | -0.65056 | 2186 ft | 129 kts | 92° |
| 2026-05-07 22:29 | 51.47678 | -0.63615 | 2017 ft | 129 kts | 92° |
| 2026-05-07 22:29 | 51.47685 | -0.62174 | 1846 ft | 129 kts | 92° |
| 2026-05-07 22:30 | 51.47692 | -0.60728 | 1663 ft | 129 kts | 92° |
| 2026-05-07 22:30 | 51.47699 | -0.59287 | 1485 ft | 129 kts | 92° |
| 2026-05-07 22:30 | 51.47706 | -0.57847 | 1307 ft | 129 kts | 92° |
| 2026-05-07 22:30 | 51.47713 | -0.56408 | 1128 ft | 129 kts | 92° |
| 2026-05-07 22:31 | 51.47720 | -0.54970 | 943 ft | 129 kts | 91° |
| 2026-05-07 22:31 | 51.47717 | -0.53538 | 748 ft | 128 kts | 90° |
| 2026-05-07 22:31 | 51.47707 | -0.52112 | 595 ft | 127 kts | 87° |
| 2026-05-07 22:31 | 51.47723 | -0.50702 | 384 ft | 126 kts | 88° |
| 2026-05-07 22:32 | 51.47741 | -0.49309 | 233 ft | 125 kts | 88° |
| 2026-05-07 22:32 | 51.47751 | -0.47907 | 88 ft | 123 kts | 90° |
| 2026-05-07 22:32 | 51.47755 | -0.46897 | 92 ft | 49 kts | 90° |
| 2026-05-07 22:32 | 51.47754 | -0.46347 | 88 ft | 44 kts | 90° |
| 2026-05-07 22:33 | 51.47686 | -0.46125 | 87 ft | 20 kts | 144° |
| 2026-05-07 22:33 | 51.47611 | -0.46084 | 86 ft | 6 kts | 199° |
| 2026-05-07 22:33 | 51.47609 | -0.46086 | 86 ft | 0 kts | 205° |
| 2026-05-07 22:35 | 51.47599 | -0.46110 | 87 ft | 6 kts | 243° |
| 2026-05-07 22:35 | 51.47594 | -0.46192 | 86 ft | 9 kts | 269° |
| 2026-05-07 22:36 | 51.47593 | -0.46306 | 86 ft | 12 kts | 269° |
| 2026-05-07 22:36 | 51.47592 | -0.46452 | 86 ft | 14 kts | 269° |
| 2026-05-07 22:36 | 51.47593 | -0.46627 | 86 ft | 17 kts | 270° |
| 2026-05-07 22:36 | 51.47587 | -0.46828 | 86 ft | 19 kts | 259° |
| 2026-05-07 22:37 | 51.47581 | -0.47050 | 88 ft | 21 kts | 269° |
| 2026-05-07 22:37 | 51.47581 | -0.47297 | 89 ft | 24 kts | 269° |
| 2026-05-07 22:37 | 51.47580 | -0.47574 | 86 ft | 26 kts | 269° |
| 2026-05-07 22:37 | 51.47578 | -0.47877 | 88 ft | 28 kts | 269° |
| 2026-05-07 22:38 | 51.47577 | -0.48192 | 87 ft | 26 kts | 269° |
| 2026-05-07 22:38 | 51.47576 | -0.48409 | 86 ft | 15 kts | 264° |
| 2026-05-07 22:38 | 51.47487 | -0.48473 | 86 ft | 17 kts | 179° |
| 2026-05-07 22:38 | 51.47359 | -0.48472 | 86 ft | 20 kts | 180° |
| 2026-05-07 22:39 | 51.47210 | -0.48470 | 86 ft | 23 kts | 179° |
| 2026-05-07 22:39 | 51.47042 | -0.48468 | 86 ft | 23 kts | 179° |
| 2026-05-07 22:39 | 51.46931 | -0.48468 | 86 ft | 11 kts | 180° |
| 2026-05-07 22:39 | 51.46876 | -0.48543 | 86 ft | 12 kts | 262° |
| 2026-05-07 22:40 | 51.46877 | -0.48628 | 89 ft | 3 kts | 282° |
| 2026-05-07 22:40 | 51.46903 | -0.48647 | 86 ft | 3 kts | 348° |
| 2026-05-07 22:40 | 51.46916 | -0.48647 | 86 ft | 2 kts | 359° |
| 2026-05-07 22:40 | 51.46926 | -0.48647 | 88 ft | 1 kts | 359° |
| 2026-05-07 22:41 | 51.46930 | -0.48647 | 88 ft | 1 kts | 360° |
| 2026-05-07 22:41 | 51.46932 | -0.48647 | 89 ft | 0 kts | 360° |
| 2026-05-07 22:55 | 51.46909 | -0.48647 | 90 ft | 4 kts | 360° |
| 2026-05-07 22:56 | 51.46885 | -0.48648 | 88 ft | 4 kts | 33° |
| 2026-05-07 22:56 | 51.46877 | -0.48673 | 87 ft | 2 kts | 89° |
| 2026-05-07 22:56 | 51.46877 | -0.48700 | 89 ft | 0 kts | 90° |
| 2026-05-07 22:59 | 51.46877 | -0.48675 | 87 ft | 5 kts | 89° |
| 2026-05-07 22:59 | 51.46878 | -0.48598 | 69 ft | 6 kts | 88° |
| 2026-05-07 22:59 | 51.46878 | -0.48573 | 86 ft | 0 kts | 88° |